Time;durP1;ratioP1;P1;durP2;ratioP2;P2;SDS_P1;SDS_P2;PMS_P1;PMS_P2;Temp;Humidity;BMP_temperature;BMP_pressure;BME280_temperature;BME280_humidity;BME280_pressure;Samples;Min_cycle;Max_cycle;Signal;HPM_P1;HPM_P2
2022/04/24 00:02:02;;;;;;;;;;;;;;;12.26;59.57;101262.41;4948797;29;1840;-96
2022/04/24 00:04:29;;;;;;;;;;;;;;;12.24;59.58;101259.94;4957239;28;2147;-96
2022/04/24 00:06:55;;;;;;;;;;;;;;;12.23;59.84;101260.13;4955305;29;1729;-96
2022/04/24 00:09:22;;;;;;;;;;;;;;;12.22;59.62;101256.59;4952699;28;4653;-96
2022/04/24 00:11:48;;;;;;;;;;;;;;;12.20;59.90;101255.97;4955746;29;1973;-96
2022/04/24 00:14:14;;;;;;;;;;;;;;;12.19;59.88;101259.75;4955054;28;5127;-96
2022/04/24 00:16:41;;;;;;;;;;;;;;;12.16;59.70;101251.25;4954409;29;1776;-96
2022/04/24 00:19:07;;;;;;;;;;;;;;;12.15;59.84;101255.00;4972593;28;1323;-96
2022/04/24 00:21:34;;;;;;;;;;;;;;;12.15;59.69;101250.41;4955667;29;1616;-96
2022/04/24 00:24:00;;;;;;;;;;;;;;;12.14;59.73;101253.31;4950764;29;1788;-96
2022/04/24 00:26:27;;;;;;;;;;;;;;;12.11;59.66;101245.63;4951144;29;4945;-96
2022/04/24 00:28:53;;;;;;;;;;;;;;;12.09;59.84;101245.88;4951342;29;1426;-96
2022/04/24 00:31:20;;;;;;;;;;;;;;;12.08;59.76;101246.88;4948461;29;1950;-96
2022/04/24 00:33:46;;;;;;;;;;;;;;;12.08;59.78;101246.88;4950756;28;1784;-96
2022/04/24 00:36:13;;;;;;;;;;;;;;;12.03;59.74;101244.84;4947897;28;1521;-96
2022/04/24 00:38:39;;;;;;;;;;;;;;;12.02;59.86;101235.06;4952699;28;2701;-96
2022/04/24 00:41:05;;;;;;;;;;;;;;;12.01;59.78;101238.81;4948365;28;1533;-96
2022/04/24 00:43:32;;;;;;;;;;;;;;;12.00;59.83;101236.31;4950284;29;1977;-96
2022/04/24 00:45:58;;;;;;;;;;;;;;;11.97;59.89;101237.59;4952614;29;1804;-96
2022/04/24 00:48:25;;;;;;;;;;;;;;;11.96;59.88;101237.78;4947824;29;1410;-96
2022/04/24 00:50:51;;;;;;;;;;;;;;;11.95;59.75;101236.16;4950202;29;1887;-96
2022/04/24 00:53:17;;;;;;;;;;;;;;;11.94;59.62;101227.22;4948242;29;1892;-96
2022/04/24 00:55:44;;;;;;;;;;;;;;;11.94;59.68;101238.03;4948227;29;1501;-96
2022/04/24 00:58:10;;;;;;;;;;;;;;;11.92;59.58;101237.41;4948655;28;1493;-96
2022/04/24 01:00:37;;;;;;;;;;;;;;;11.90;59.63;101234.06;4950641;29;1851;-96
2022/04/24 01:03:03;;;;;;;;;;;;;;;11.89;59.82;101232.41;4949102;29;1914;-96
2022/04/24 01:05:29;;;;;;;;;;;;;;;11.88;59.59;101233.44;4955248;29;1536;-96
2022/04/24 01:07:56;;;;;;;;;;;;;;;11.86;59.65;101240.13;4950118;28;1649;-96
2022/04/24 01:10:22;;;;;;;;;;;;;;;11.85;59.68;101238.41;4955772;28;1402;-96
2022/04/24 01:12:49;;;;;;;;;;;;;;;11.82;59.64;101229.72;4947086;29;1882;-96
2022/04/24 01:15:15;;;;;;;;;;;;;;;11.80;59.62;101231.78;4947589;29;1832;-96
2022/04/24 01:17:41;;;;;;;;;;;;;;;11.79;59.55;101224.75;4947954;29;1489;-96
2022/04/24 01:20:08;;;;;;;;;;;;;;;11.79;59.75;101230.16;4949812;28;1473;-96
2022/04/24 01:22:34;;;;;;;;;;;;;;;11.78;59.75;101228.47;4947465;28;1874;-96
2022/04/24 01:25:01;;;;;;;;;;;;;;;11.77;59.77;101223.28;4950680;29;1669;-96
2022/04/24 01:27:27;;;;;;;;;;;;;;;11.74;59.60;101221.84;4954639;29;1860;-96
2022/04/24 01:29:54;;;;;;;;;;;;;;;11.74;59.60;101229.94;4952404;29;1465;-96
2022/04/24 01:32:20;;;;;;;;;;;;;;;11.73;59.67;101220.16;4954597;28;1929;-96
2022/04/24 01:34:46;;;;;;;;;;;;;;;11.71;59.56;101222.28;4975911;28;1587;-96
2022/04/24 01:37:13;;;;;;;;;;;;;;;11.70;59.53;101217.06;4971813;28;1850;-95
2022/04/24 01:39:39;;;;;;;;;;;;;;;11.69;59.56;101212.72;4970586;28;1929;-96
2022/04/24 01:42:05;;;;;;;;;;;;;;;11.67;59.50;101218.31;4971713;28;1877;-96
2022/04/24 01:44:32;;;;;;;;;;;;;;;11.66;59.54;101223.94;4971817;28;1441;-96
2022/04/24 01:46:58;;;;;;;;;;;;;;;11.64;59.73;101218.72;4969871;28;1719;-96
2022/04/24 01:49:25;;;;;;;;;;;;;;;11.63;59.65;101222.47;4966748;28;1804;-96
2022/04/24 01:51:51;;;;;;;;;;;;;;;11.60;59.47;101222.91;4969864;28;1914;-96
2022/04/24 01:54:17;;;;;;;;;;;;;;;11.61;59.48;101224.56;4972720;28;1987;-96
2022/04/24 01:56:44;;;;;;;;;;;;;;;11.59;59.47;101216.69;4972156;28;1417;-96
2022/04/24 01:59:11;;;;;;;;;;;;;;;11.58;59.55;101216.88;4970655;28;1790;-96
2022/04/24 02:01:37;;;;;;;;;;;;;;;11.55;59.64;101210.03;4986139;28;1865;-96
2022/04/24 02:04:04;;;;;;;;;;;;;;;11.55;59.24;101209.22;4968920;28;1766;-96
2022/04/24 02:06:30;;;;;;;;;;;;;;;11.53;59.54;101206.75;4972513;28;1563;-96
2022/04/24 02:08:57;;;;;;;;;;;;;;;11.53;59.52;101209.44;4972587;28;1536;-96
2022/04/24 02:11:23;;;;;;;;;;;;;;;11.50;59.50;101209.00;4980995;28;1895;-96
2022/04/24 02:13:50;;;;;;;;;;;;;;;11.49;59.61;101212.75;4971848;28;1539;-96
2022/04/24 02:16:16;;;;;;;;;;;;;;;11.47;59.58;101210.28;4974087;28;1916;-96
2022/04/24 02:18:42;;;;;;;;;;;;;;;11.46;59.57;101205.91;4968825;28;1810;-96
2022/04/24 02:21:09;;;;;;;;;;;;;;;11.45;59.50;101200.72;4965195;28;1528;-96
2022/04/24 02:23:35;;;;;;;;;;;;;;;11.45;59.46;101206.13;4973642;28;1722;-96
2022/04/24 02:26:01;;;;;;;;;;;;;;;11.45;59.56;101201.56;4973732;28;1795;-96
2022/04/24 02:28:28;;;;;;;;;;;;;;;11.43;59.50;101206.31;4969864;28;1847;-96
2022/04/24 02:30:54;;;;;;;;;;;;;;;11.43;59.30;101202.81;4969868;28;1939;-96
2022/04/24 02:33:20;;;;;;;;;;;;;;;11.39;59.56;101202.41;4970658;28;1635;-96
2022/04/24 02:35:47;;;;;;;;;;;;;;;11.39;59.46;101193.47;4970681;28;1433;-96
2022/04/24 02:38:13;;;;;;;;;;;;;;;11.37;59.32;101196.38;4971300;28;5138;-96
2022/04/24 02:40:40;;;;;;;;;;;;;;;11.36;59.24;101192.03;4966059;28;5128;-96
2022/04/24 02:43:06;;;;;;;;;;;;;;;11.35;59.27;101188.50;4975865;28;1888;-96
2022/04/24 02:45:32;;;;;;;;;;;;;;;11.34;59.26;101192.22;4974638;28;5161;-96
2022/04/24 02:47:59;;;;;;;;;;;;;;;11.34;59.17;101191.41;4971727;28;1779;-96
2022/04/24 02:50:25;;;;;;;;;;;;;;;11.32;59.28;101185.38;4970543;28;1426;-96
2022/04/24 02:52:52;;;;;;;;;;;;;;;11.31;59.29;101181.03;4967751;28;1980;-96
2022/04/24 02:55:18;;;;;;;;;;;;;;;11.31;59.26;101184.56;4972747;28;1555;-96
2022/04/24 02:57:44;;;;;;;;;;;;;;;11.30;59.11;101174.81;4971570;28;1599;-96
2022/04/24 03:00:11;;;;;;;;;;;;;;;11.28;59.23;101182.28;4972054;28;1985;-96
2022/04/24 03:02:37;;;;;;;;;;;;;;;11.27;59.02;101180.63;4970851;28;1397;-96
2022/04/24 03:05:04;;;;;;;;;;;;;;;11.26;59.07;101180.81;4972520;28;1453;-96
2022/04/24 03:07:30;;;;;;;;;;;;;;;11.25;59.20;101173.78;4970982;28;1959;-96
2022/04/24 03:09:56;;;;;;;;;;;;;;;11.24;59.05;101170.25;4971415;28;2460;-96
2022/04/24 03:12:23;;;;;;;;;;;;;;;11.23;59.12;101167.75;4968595;28;1981;-96
2022/04/24 03:14:49;;;;;;;;;;;;;;;11.22;58.82;101172.31;4971058;28;1669;-96
2022/04/24 03:17:16;;;;;;;;;;;;;;;11.21;59.00;101165.28;4976150;28;1477;-96
2022/04/24 03:19:42;;;;;;;;;;;;;;;11.20;59.11;101160.09;4973872;28;2005;-96
2022/04/24 03:22:09;;;;;;;;;;;;;;;11.19;59.13;101166.53;4966243;28;1519;-96
2022/04/24 03:24:35;;;;;;;;;;;;;;;11.19;59.09;101169.22;4974095;28;1675;-96
2022/04/24 03:27:02;;;;;;;;;;;;;;;11.17;59.10;101161.31;4971698;28;1907;-96
2022/04/24 03:29:29;;;;;;;;;;;;;;;11.15;59.10;101166.13;4971799;28;1981;-96
2022/04/24 03:31:55;;;;;;;;;;;;;;;11.16;58.94;101169.63;4972946;28;1887;-96
2022/04/24 03:34:21;;;;;;;;;;;;;;;11.13;58.85;101169.00;4945714;29;1416;-96
2022/04/24 03:36:48;;;;;;;;;;;;;;;11.12;58.97;101161.16;4945741;29;1773;-96
2022/04/24 03:39:14;;;;;;;;;;;;;;;11.11;58.80;101159.47;4950737;29;1851;-96
2022/04/24 03:41:41;;;;;;;;;;;;;;;11.10;58.97;101152.44;4946486;29;1745;-96
2022/04/24 03:44:08;;;;;;;;;;;;;;;11.06;58.90;101152.03;4943563;29;1465;-96
2022/04/24 03:46:34;;;;;;;;;;;;;;;11.07;59.02;101153.66;4943737;29;1809;-96
2022/04/24 03:49:01;;;;;;;;;;;;;;;11.06;58.86;101148.47;4945360;29;1896;-95
2022/04/24 03:51:27;;;;;;;;;;;;;;;11.06;58.93;101145.78;4949814;28;1974;-96
2022/04/24 03:53:53;;;;;;;;;;;;;;;11.04;58.95;101146.00;4941860;29;1872;-96
2022/04/24 03:56:20;;;;;;;;;;;;;;;11.03;58.82;101143.50;4947327;29;1690;-96
2022/04/24 03:58:46;;;;;;;;;;;;;;;11.01;58.88;101138.34;4941111;29;1903;-96
2022/04/24 04:01:13;;;;;;;;;;;;;;;11.00;58.96;101131.28;4953740;28;1911;-96
2022/04/24 04:03:39;;;;;;;;;;;;;;;11.00;58.85;101139.38;4946478;29;1552;-96
2022/04/24 04:06:06;;;;;;;;;;;;;;;10.98;58.90;101143.31;4950153;29;1537;-96
2022/04/24 04:08:32;;;;;;;;;;;;;;;10.98;58.79;101137.94;4953377;28;1661;-96
2022/04/24 04:10:59;;;;;;;;;;;;;;;10.97;58.81;101131.72;4951470;29;2006;-96
2022/04/24 04:13:26;;;;;;;;;;;;;;;10.96;58.83;101135.44;4944798;29;1923;-96
2022/04/24 04:15:52;;;;;;;;;;;;;;;10.95;58.68;101132.97;4949480;29;1859;-96
2022/04/24 04:18:19;;;;;;;;;;;;;;;10.91;58.86;101133.38;4949959;29;1862;-96
2022/04/24 04:20:45;;;;;;;;;;;;;;;10.91;58.65;101130.69;4950093;29;1572;-96
2022/04/24 04:23:11;;;;;;;;;;;;;;;10.89;58.59;101121.97;4950366;29;1720;-96
2022/04/24 04:25:38;;;;;;;;;;;;;;;10.88;58.65;101128.41;4953070;29;1452;-96
2022/04/24 04:28:04;;;;;;;;;;;;;;;10.91;58.51;101135.22;4958259;29;1887;-96
2022/04/24 04:30:30;;;;;;;;;;;;;;;10.87;58.56;101126.72;4957740;29;1859;-96
2022/04/24 04:32:57;;;;;;;;;;;;;;;10.85;58.46;101125.25;4946693;28;1911;-96
2022/04/24 04:35:23;;;;;;;;;;;;;;;10.85;58.55;101136.03;4950491;29;1390;-96
2022/04/24 04:37:50;;;;;;;;;;;;;;;10.87;58.54;101131.28;4956957;28;1673;-96
2022/04/24 04:40:18;;;;;;;;;;;;;;;10.83;58.51;101122.78;4957372;28;1653;-96
2022/04/24 04:42:44;;;;;;;;;;;;;;;10.83;58.48;101119.28;4949618;29;1887;-96
2022/04/24 04:45:11;;;;;;;;;;;;;;;10.81;58.44;101126.72;4952375;29;2064;-96
2022/04/24 04:47:37;;;;;;;;;;;;;;;10.80;58.65;101119.69;4952775;29;1671;-96
2022/04/24 04:50:04;;;;;;;;;;;;;;;10.79;58.34;101126.09;4949549;29;1560;-96
2022/04/24 04:52:30;;;;;;;;;;;;;;;10.77;58.40;101122.81;4948748;28;1919;-96
2022/04/24 04:54:56;;;;;;;;;;;;;;;10.76;58.55;101130.03;4950238;29;2153;-96
2022/04/24 04:57:23;;;;;;;;;;;;;;;10.77;58.39;101120.94;4952635;28;1608;-96
2022/04/24 04:59:49;;;;;;;;;;;;;;;10.77;58.41;101125.50;4951456;29;1701;-96
2022/04/24 05:02:16;;;;;;;;;;;;;;;10.75;58.41;101116.78;4947989;29;1923;-96
2022/04/24 05:04:43;;;;;;;;;;;;;;;10.73;58.47;101119.66;4945095;29;1375;-96
2022/04/24 05:07:09;;;;;;;;;;;;;;;10.73;58.56;101122.38;4948434;29;1489;-96
2022/04/24 05:09:36;;;;;;;;;;;;;;;10.71;58.46;101124.47;4951770;28;5390;-96
2022/04/24 05:12:02;;;;;;;;;;;;;;;10.69;58.37;101113.03;4953325;28;2109;-96
2022/04/24 05:14:29;;;;;;;;;;;;;;;10.71;58.25;101121.75;4948663;29;5012;-96
2022/04/24 05:16:56;;;;;;;;;;;;;;;10.69;58.25;101118.44;4953180;29;1737;-96
2022/04/24 05:19:23;;;;;;;;;;;;;;;10.68;58.26;101122.19;4953726;28;1433;-96
2022/04/24 05:21:50;;;;;;;;;;;;;;;10.67;58.34;101120.50;4953453;29;1911;-96
2022/04/24 05:24:17;;;;;;;;;;;;;;;10.66;58.26;101116.97;4950340;29;1798;-96
2022/04/24 05:26:43;;;;;;;;;;;;;;;10.65;58.28;101130.66;4953787;29;4961;-96
2022/04/24 05:29:09;;;;;;;;;;;;;;;10.64;58.20;101124.44;4955333;29;1788;-96
2022/04/24 05:31:36;;;;;;;;;;;;;;;10.64;58.19;101119.03;4953682;29;2013;-96
2022/04/24 05:34:02;;;;;;;;;;;;;;;10.62;58.09;101118.44;4958441;28;1199;-96
2022/04/24 05:36:28;;;;;;;;;;;;;;;10.62;58.04;101117.63;4954509;29;1318;-96
2022/04/24 05:38:55;;;;;;;;;;;;;;;10.62;58.14;101114.94;4954530;28;2955;-96
2022/04/24 05:41:21;;;;;;;;;;;;;;;10.61;58.18;101118.63;4950029;29;1892;-96
2022/04/24 05:43:48;;;;;;;;;;;;;;;10.59;58.16;101118.84;4955072;29;1395;-96
2022/04/24 05:46:14;;;;;;;;;;;;;;;10.59;57.99;101120.69;4958677;29;2074;-96
2022/04/24 05:48:41;;;;;;;;;;;;;;;10.58;57.89;101117.19;4970756;28;1867;-96
2022/04/24 05:51:07;;;;;;;;;;;;;;;10.57;57.88;101112.00;4953798;29;1779;-96
2022/04/24 05:53:33;;;;;;;;;;;;;;;10.55;57.95;101100.59;4951605;28;1971;-96
2022/04/24 05:56:00;;;;;;;;;;;;;;;10.55;58.04;101104.13;4957269;29;1978;-96
2022/04/24 05:58:26;;;;;;;;;;;;;;;10.53;57.92;101094.59;4952785;29;1750;-96
2022/04/24 06:00:53;;;;;;;;;;;;;;;10.53;57.73;101090.06;4947268;29;1907;-96
2022/04/24 06:03:19;;;;;;;;;;;;;;;10.54;57.80;101097.09;4958715;29;1267;-96
2022/04/24 06:05:45;;;;;;;;;;;;;;;10.52;57.99;101096.44;4969571;28;1567;-96
2022/04/24 06:08:12;;;;;;;;;;;;;;;10.50;57.86;101092.31;4943223;29;1867;-96
2022/04/24 06:10:38;;;;;;;;;;;;;;;10.49;57.88;101082.56;4958880;28;1848;-96
2022/04/24 06:13:09;;;;;;;;;;;;;;;10.48;57.95;101103.28;4954081;29;2009;-96
2022/04/24 06:15:36;;;;;;;;;;;;;;;10.50;57.84;101095.00;4959725;29;1481;-96
2022/04/24 06:18:02;;;;;;;;;;;;;;;10.47;57.87;101104.34;4955634;29;1687;-96
2022/04/24 06:20:28;;;;;;;;;;;;;;;10.45;57.95;101109.09;4951812;29;1560;-96
2022/04/24 06:22:55;;;;;;;;;;;;;;;10.45;57.77;101109.09;4962651;28;1244;-96
2022/04/24 06:25:22;;;;;;;;;;;;;;;10.44;57.80;101112.81;4958312;29;1631;-96
2022/04/24 06:27:48;;;;;;;;;;;;;;;10.45;57.78;101118.00;4942044;29;1348;-96
2022/04/24 06:30:14;;;;;;;;;;;;;;;10.44;57.69;101124.44;4951237;29;1664;-96
2022/04/24 06:32:41;;;;;;;;;;;;;;;10.43;57.63;101120.06;4953727;28;1998;-95
2022/04/24 06:35:09;;;;;;;;;;;;;;;10.41;57.55;101116.75;4955717;29;1888;-96
2022/04/24 06:37:35;;;;;;;;;;;;;;;10.41;57.55;101119.47;4961884;28;1902;-95
2022/04/24 06:40:01;;;;;;;;;;;;;;;10.40;57.50;101128.53;4962122;28;1780;-96
2022/04/24 06:42:28;;;;;;;;;;;;;;;10.39;57.60;101126.91;4958194;29;1243;-96
2022/04/24 06:44:54;;;;;;;;;;;;;;;10.40;57.54;101130.41;4955060;28;1896;-96
2022/04/24 06:47:21;;;;;;;;;;;;;;;10.39;57.59;101132.28;4950385;29;1875;-96
2022/04/24 06:49:47;;;;;;;;;;;;;;;10.37;57.63;101136.22;4950611;29;1433;-96
2022/04/24 06:52:13;;;;;;;;;;;;;;;10.37;57.55;101128.13;4948852;28;4998;-96
2022/04/24 06:54:40;;;;;;;;;;;;;;;10.37;57.55;101134.34;4945883;28;5115;-96
2022/04/24 06:57:06;;;;;;;;;;;;;;;10.36;57.54;101139.94;4946270;29;1660;-96
2022/04/24 06:59:32;;;;;;;;;;;;;;;10.35;57.47;101131.03;4949609;29;1754;-95
2022/04/24 07:01:59;;;;;;;;;;;;;;;10.34;57.79;101140.13;4956214;29;1603;-95
2022/04/24 07:04:25;;;;;;;;;;;;;;;10.34;57.65;101128.53;4952149;29;2386;-95
2022/04/24 07:06:51;;;;;;;;;;;;;;;10.32;57.59;101128.72;4947764;29;1406;-95
2022/04/24 07:09:18;;;;;;;;;;;;;;;10.33;57.63;101129.59;4954481;28;1863;-95
2022/04/24 07:11:44;;;;;;;;;;;;;;;10.32;57.54;101119.84;4953674;29;1720;-94
2022/04/24 07:14:10;;;;;;;;;;;;;;;10.31;57.71;101118.19;4953286;29;1946;-96
2022/04/24 07:16:37;;;;;;;;;;;;;;;10.31;57.41;101116.31;4956934;29;1926;-96
2022/04/24 07:19:03;;;;;;;;;;;;;;;10.30;57.38;101109.28;4974302;28;1658;-96
2022/04/24 07:21:30;;;;;;;;;;;;;;;10.30;57.42;101106.59;4956588;29;1305;-96
2022/04/24 07:23:56;;;;;;;;;;;;;;;10.29;57.38;101109.47;4956458;29;1840;-96
2022/04/24 07:26:22;;;;;;;;;;;;;;;10.30;57.27;101113.84;4956569;29;2041;-96
2022/04/24 07:28:49;;;;;;;;;;;;;;;10.28;57.55;101111.34;4974549;28;1617;-96
2022/04/24 07:31:18;;;;;;;;;;;;;;;10.29;57.34;101114.84;4952589;29;1781;-96
2022/04/24 07:33:44;;;;;;;;;;;;;;;10.26;57.36;101110.66;4954415;28;2203;-96
2022/04/24 07:36:11;;;;;;;;;;;;;;;10.28;57.35;101111.34;4956115;29;1612;-96
2022/04/24 07:38:37;;;;;;;;;;;;;;;10.27;57.24;101108.88;4955077;28;1927;-96
2022/04/24 07:41:04;;;;;;;;;;;;;;;10.26;57.21;101121.44;4956717;29;1564;-96
2022/04/24 07:43:30;;;;;;;;;;;;;;;10.26;57.22;101110.66;4957186;29;1656;-96
2022/04/24 07:45:56;;;;;;;;;;;;;;;10.25;57.31;101114.41;4955693;29;1900;-96
2022/04/24 07:48:23;;;;;;;;;;;;;;;10.24;57.37;101126.22;4955539;29;1913;-96
2022/04/24 07:50:49;;;;;;;;;;;;;;;10.22;57.33;101117.50;4955639;29;1769;-96
2022/04/24 07:53:24;;;;;;;;;;;;;;;10.22;57.29;101114.81;4966046;28;2067;-96
2022/04/24 07:55:50;;;;;;;;;;;;;;;10.21;57.35;101116.69;4955011;28;1935;-96
2022/04/24 07:58:16;;;;;;;;;;;;;;;10.21;57.33;101110.47;4946780;29;1341;-96
2022/04/24 08:00:47;;;;;;;;;;;;;;;10.21;57.40;101115.84;4955788;29;1856;-96
2022/04/24 08:03:13;;;;;;;;;;;;;;;10.20;57.35;101114.19;4955903;29;1947;-96
2022/04/24 08:05:40;;;;;;;;;;;;;;;10.20;57.24;101114.19;4958559;29;1412;-96
2022/04/24 08:08:06;;;;;;;;;;;;;;;10.20;57.21;101117.69;4957358;29;1857;-96
2022/04/24 08:10:33;;;;;;;;;;;;;;;10.19;57.24;101116.06;4955971;28;1567;-96
2022/04/24 08:12:59;;;;;;;;;;;;;;;10.19;57.30;101113.34;4955903;29;1976;-96
2022/04/24 08:15:25;;;;;;;;;;;;;;;10.18;57.37;101110.88;4954706;29;1852;-96
2022/04/24 08:17:52;;;;;;;;;;;;;;;10.19;57.14;101123.31;4955598;29;1627;-96
2022/04/24 08:20:18;;;;;;;;;;;;;;;10.18;57.17;101118.97;4956242;29;1612;-95
2022/04/24 08:22:45;;;;;;;;;;;;;;;10.17;57.22;101111.91;4955775;29;1750;-95
2022/04/24 08:25:19;;;;;;;;;;;;;;;10.16;57.42;101112.94;4957718;29;1304;-96
2022/04/24 08:27:46;;;;;;;;;;;;;;;10.15;57.20;101111.28;4961875;28;1899;-96
2022/04/24 08:30:13;;;;;;;;;;;;;;;10.16;57.28;101116.47;4954552;29;2340;-95
2022/04/24 08:32:39;;;;;;;;;;;;;;;10.15;57.35;101116.69;4960982;28;1914;-96
2022/04/24 08:35:05;;;;;;;;;;;;;;;10.15;57.25;101120.19;4949223;29;1381;-96
2022/04/24 08:37:32;;;;;;;;;;;;;;;10.15;57.34;101114.81;4956981;29;2049;-96
2022/04/24 08:39:58;;;;;;;;;;;;;;;10.14;57.26;101118.50;4943549;28;1677;-96
2022/04/24 08:42:25;;;;;;;;;;;;;;;10.14;57.18;101118.50;4958656;29;1408;-96
2022/04/24 08:44:51;;;;;;;;;;;;;;;10.14;57.20;101123.06;4957569;29;1173;-96
2022/04/24 08:47:17;;;;;;;;;;;;;;;10.13;57.24;101118.72;4955132;28;1898;-96
2022/04/24 08:49:44;;;;;;;;;;;;;;;10.13;57.20;101116.03;4941356;29;1182;-96
2022/04/24 08:52:10;;;;;;;;;;;;;;;10.12;57.21;101117.91;4950279;28;1898;-96
2022/04/24 08:54:36;;;;;;;;;;;;;;;10.12;57.15;101111.69;4952764;28;5593;-96
2022/04/24 08:57:03;;;;;;;;;;;;;;;10.11;57.12;101113.53;4954671;29;5068;-96
2022/04/24 08:59:29;;;;;;;;;;;;;;;10.13;57.14;101116.03;4956003;29;1955;-96
2022/04/24 09:01:56;;;;;;;;;;;;;;;10.12;57.16;101114.38;4955183;28;2081;-96
2022/04/24 09:04:22;;;;;;;;;;;;;;;10.12;57.00;101109.84;4968006;28;1279;-96
2022/04/24 09:06:48;;;;;;;;;;;;;;;10.12;57.08;101109.00;4954641;29;1648;-96
2022/04/24 09:09:15;;;;;;;;;;;;;;;10.11;56.95;101116.22;4950821;29;1939;-96
2022/04/24 09:11:57;;;;;;;;;;;;;;;10.10;57.07;101111.88;4952584;29;2500;-96
2022/04/24 09:14:24;;;;;;;;;;;;;;;10.11;57.18;101110.84;4956325;29;2001;-96
2022/04/24 09:16:50;;;;;;;;;;;;;;;10.11;57.06;101116.22;4960112;29;2014;-96
2022/04/24 09:19:17;;;;;;;;;;;;;;;10.11;57.06;101118.09;4957154;29;1769;-96
2022/04/24 09:21:43;;;;;;;;;;;;;;;10.11;57.17;101116.22;4947643;29;2040;-96
2022/04/24 09:24:09;;;;;;;;;;;;;;;10.10;57.19;101114.59;4950990;28;2761;-96
2022/04/24 09:26:36;;;;;;;;;;;;;;;10.11;57.19;101113.53;4948202;28;1951;-96
2022/04/24 09:29:02;;;;;;;;;;;;;;;10.10;57.05;101105.69;4947525;29;1795;-96
2022/04/24 09:31:30;;;;;;;;;;;;;;;10.10;57.05;101108.38;4946020;28;1917;-96
2022/04/24 09:33:57;;;;;;;;;;;;;;;10.10;57.03;101100.28;4949353;28;1980;-96
2022/04/24 10:26:57;;;;;;;;;;;;;;;10.11;57.06;101077.72;1980511;23;3198;-96
2022/04/24 10:29:28;;;;;;;;;;;;;;;10.12;57.08;101065.94;5002799;28;1606;-96
2022/04/24 10:31:56;;;;;;;;;;;;;;;10.12;57.01;101071.31;5066785;23;3594;-96
2022/04/24 10:34:23;;;;;;;;;;;;;;;10.11;57.21;101070.47;5005623;23;3807;-95
2022/04/24 10:36:49;;;;;;;;;;;;;;;10.11;57.07;101067.78;4971966;28;5399;-95
2022/04/24 10:39:16;;;;;;;;;;;;;;;10.12;57.03;101076.72;4958294;28;1990;-95
2022/04/24 10:41:42;;;;;;;;;;;;;;;10.11;57.06;101067.78;4952619;28;5269;-95
2022/04/24 10:44:09;;;;;;;;;;;;;;;10.14;56.99;101058.47;4957132;28;5382;-94
2022/04/24 10:46:35;;;;;;;;;;;;;;;10.13;56.96;101063.03;4957836;28;1984;-95
2022/04/24 10:49:02;;;;;;;;;;;;;;;10.15;56.95;101060.16;4961985;28;5236;-95
2022/04/24 10:51:29;;;;;;;;;;;;;;;10.16;57.00;101051.84;4957531;28;2922;-95
2022/04/24 10:53:55;;;;;;;;;;;;;;;10.14;57.01;101048.53;4951433;28;5619;-96
2022/04/24 10:56:22;;;;;;;;;;;;;;;10.16;56.94;101046.47;4956959;28;4845;-96
2022/04/24 10:58:50;;;;;;;;;;;;;;;10.20;56.85;101046.88;4954192;28;2684;-95
2022/04/24 11:01:17;;;;;;;;;;;;;;;10.20;56.94;101039.63;4952673;28;4935;-96
2022/04/24 11:03:44;;;;;;;;;;;;;;;10.21;57.10;101043.19;4953453;28;2835;-95
2022/04/24 11:06:10;;;;;;;;;;;;;;;10.22;56.65;101042.13;4952159;28;5690;-95
2022/04/24 11:08:37;;;;;;;;;;;;;;;10.21;56.58;101035.94;4956154;28;2142;-95
2022/04/24 11:11:03;;;;;;;;;;;;;;;10.22;56.82;101034.06;4955756;28;4305;-96
2022/04/24 11:13:31;;;;;;;;;;;;;;;10.23;56.82;101031.19;4957360;28;1919;-95
2022/04/24 11:15:57;;;;;;;;;;;;;;;10.24;57.03;101018.53;4941869;28;5446;-95
2022/04/24 11:18:24;;;;;;;;;;;;;;;10.24;56.71;101019.38;4965347;28;4672;-96
2022/04/24 11:20:50;;;;;;;;;;;;;;;10.27;56.75;101014.66;4955832;28;2105;-96
2022/04/24 11:23:20;;;;;;;;;;;;;;;10.26;56.80;101012.94;4970860;28;1579;-96
2022/04/24 11:25:48;;;;;;;;;;;;;;;10.24;56.93;101013.97;5797587;23;3602;-96
2022/04/24 11:28:16;;;;;;;;;;;;;;;10.26;56.96;101012.94;4936426;29;1747;-96
2022/04/24 11:30:43;;;;;;;;;;;;;;;10.28;56.85;101000.13;4930174;29;5392;-96
2022/04/24 11:33:09;;;;;;;;;;;;;;;10.30;56.99;101000.78;4916752;29;1914;-96
2022/04/24 11:35:46;;;;;;;;;;;;;;;;;;;;;
2022/04/24 11:38:13;;;;;;;;;;;;;;;10.31;56.86;100991.66;4923303;29;2088;-96
2022/04/24 11:40:39;;;;;;;;;;;;;;;10.31;56.76;100991.66;4918363;29;2512;-96
2022/04/24 11:43:06;;;;;;;;;;;;;;;10.31;56.94;100991.66;4925079;29;1478;-96
2022/04/24 11:51:02;;;;;;;;;;;;;;;10.34;56.99;100986.66;4917450;29;2657;-96
2022/04/24 11:53:29;;;;;;;;;;;;;;;10.37;56.87;100977.34;4935615;29;1914;-96
2022/04/24 11:56:04;;;;;;;;;;;;;;;10.34;56.98;100980.47;4935047;29;2082;-96
2022/04/24 12:09:21;;;;;;;;;;;;;;;10.40;57.06;100966.16;4977124;28;2199;-96
2022/04/24 12:11:49;;;;;;;;;;;;;;;10.40;56.93;100966.16;4957968;28;2636;-96
2022/04/24 12:14:16;;;;;;;;;;;;;;;10.41;57.04;100965.13;4958353;28;2010;-96
2022/04/24 12:16:42;;;;;;;;;;;;;;;10.43;57.02;100966.56;4959602;28;2008;-95
2022/04/24 12:19:10;;;;;;;;;;;;;;;10.44;57.20;100965.56;4977825;28;2714;-96
2022/04/24 12:21:36;;;;;;;;;;;;;;;10.49;57.06;100964.09;4985957;28;2005;-96
2022/04/24 12:24:03;;;;;;;;;;;;;;;10.51;57.15;100959.31;5004646;28;1904;-96
2022/04/24 12:26:29;;;;;;;;;;;;;;;10.50;57.04;100958.50;4983732;28;1393;-96
2022/04/24 12:28:55;;;;;;;;;;;;;;;10.51;57.01;100962.84;4978547;28;5567;-96
2022/04/24 12:31:22;;;;;;;;;;;;;;;10.54;57.04;100961.59;4978890;28;1909;-96
2022/04/24 12:33:48;;;;;;;;;;;;;;;10.52;57.17;100960.97;4978683;28;1978;-96
2022/04/24 12:36:15;;;;;;;;;;;;;;;10.55;57.11;100957.84;4979552;28;1272;-96
2022/04/24 12:38:41;;;;;;;;;;;;;;;10.55;57.11;100955.16;4979472;28;2868;-96
2022/04/24 12:41:08;;;;;;;;;;;;;;;10.56;57.28;100946.88;4981865;28;2001;-96
2022/04/24 12:43:34;;;;;;;;;;;;;;;10.55;57.17;100944.38;4976342;28;5303;-96
2022/04/24 12:46:01;;;;;;;;;;;;;;;10.55;57.27;100945.22;4969844;28;5385;-94
2022/04/24 12:48:27;;;;;;;;;;;;;;;10.57;57.37;100928.88;5015250;28;2221;-96
2022/04/24 12:50:54;;;;;;;;;;;;;;;10.59;57.26;100926.75;4983490;28;1737;-96
2022/04/24 12:53:20;;;;;;;;;;;;;;;10.59;57.32;100924.91;4979746;28;2741;-96
2022/04/24 12:55:46;;;;;;;;;;;;;;;10.59;57.50;100918.69;4974596;28;1939;-96
2022/04/24 12:58:14;;;;;;;;;;;;;;;10.60;57.34;100917.66;4980342;28;2671;-96
2022/04/24 13:00:40;;;;;;;;;;;;;;;10.60;57.47;100913.09;4979196;28;5508;-96
2022/04/24 13:03:08;;;;;;;;;;;;;;;10.61;57.63;100913.91;4978520;28;2141;-96
2022/04/24 13:05:35;;;;;;;;;;;;;;;10.64;57.46;100911.63;4978856;28;2318;-96
2022/04/24 13:08:02;;;;;;;;;;;;;;;10.63;57.55;100912.69;4984824;28;1702;-96
2022/04/24 13:10:28;;;;;;;;;;;;;;;10.64;57.58;100917.00;4978556;28;2818;-96
2022/04/24 13:13:00;;;;;;;;;;;;;;;10.66;57.46;100906.88;4980429;28;2133;-96
2022/04/24 13:15:26;;;;;;;;;;;;;;;10.67;57.46;100905.81;4972122;28;5372;-96
2022/04/24 13:18:07;;;;;;;;;;;;;;;10.69;57.47;100906.44;4981114;28;1214;-95
2022/04/24 13:20:36;;;;;;;;;;;;;;;10.70;57.71;100912.66;4977821;28;4980;-96
2022/04/24 13:23:02;;;;;;;;;;;;;;;10.70;57.67;100904.56;4977366;28;1355;-96
2022/04/24 13:25:29;;;;;;;;;;;;;;;10.71;57.66;100902.69;4988715;28;2991;-96
2022/04/24 13:27:55;;;;;;;;;;;;;;;10.72;57.71;100899.81;4978659;28;1857;-96
2022/04/24 13:30:22;;;;;;;;;;;;;;;10.72;57.76;100894.41;4971170;28;5267;-96
2022/04/24 13:32:49;;;;;;;;;;;;;;;10.76;57.76;100894.81;4979950;28;1570;-96
2022/04/24 13:35:15;;;;;;;;;;;;;;;10.74;57.83;100884.25;4978928;28;2125;-96
2022/04/24 13:40:26;;;;;;;;;;;;;;;10.76;57.83;100874.09;4972773;28;5174;-95
2022/04/24 13:42:53;;;;;;;;;;;;;;;10.78;57.83;100879.28;4960987;28;1381;-96
2022/04/24 13:45:19;;;;;;;;;;;;;;;10.80;57.80;100879.91;4977991;28;2221;-96
2022/04/24 13:47:46;;;;;;;;;;;;;;;10.80;57.93;100878.03;4977342;28;2285;-95
2022/04/24 13:50:13;;;;;;;;;;;;;;;10.82;57.85;100877.78;4975090;28;2512;-96
2022/04/24 13:52:39;;;;;;;;;;;;;;;10.83;57.88;100874.91;4985777;28;5299;-96
2022/04/24 13:55:06;;;;;;;;;;;;;;;10.86;57.95;100879.03;4970119;28;4902;-95